Como, Colorado
Current Conditions -  °F | °C
As of 5:15 PM on Friday 21 Nov 2014 (Local Time) from KCCU Reporting Station
Clear Clear  
Wind Chill: 13°   Ceiling: Unl
Heat Index: 25°   Visibility: NA
Dew Point: 10°   Wind: 13mph
Humidity: 54%   Direction: 280°W
Pressure: 30.12"   Gusts: NA
Location:  39.32°N, 105.89°W
Report Text: KCCU 220015Z AUTO 28011KT CLR M04/M12 A3012 RMK AO2 PWINO
Loading
Personal Weather Stations






























Interactive Weather Map New forecast layout! Learn more

10-Day Weather Forecast

Advertisements
Track Severe Weather on mobile